Time;durP1;ratioP1;P1;durP2;ratioP2;P2;SDS_P1;SDS_P2;PMS_P1;PMS_P2;Temp;Humidity;BMP_temperature;BMP_pressure;BME280_temperature;BME280_humidity;BME280_pressure;Samples;Min_cycle;Max_cycle;Signal;HPM_P1;HPM_P2
2021/06/08 00:01:26;;;;;;;12.30;6.05;;;;;;;15.33;75.92;99132.55;130050;1090;22549;-59
2021/06/08 00:03:55;;;;;;;5.43;4.70;;;;;;;15.31;76.24;99132.03;130011;1090;114658;-60
2021/06/08 00:06:23;;;;;;;10.08;5.40;;;;;;;15.31;76.13;99136.70;130150;1090;23316;-60
2021/06/08 00:08:51;;;;;;;7.58;5.18;;;;;;;15.29;76.22;99131.54;129990;1090;113827;-60
2021/06/08 00:11:20;;;;;;;6.95;4.78;;;;;;;15.29;76.35;99125.23;130126;1089;23887;-60
2021/06/08 00:13:49;;;;;;;8.25;4.75;;;;;;;15.27;76.25;99121.97;129993;1090;113663;-60
2021/06/08 00:16:18;;;;;;;8.13;5.23;;;;;;;15.31;76.58;99122.98;130135;1089;22528;-60
2021/06/08 00:18:46;;;;;;;8.13;5.23;;;;;;;15.31;76.45;99123.80;130058;1090;22574;-60
2021/06/08 00:21:15;;;;;;;7.15;6.08;;;;;;;15.32;76.35;99122.69;130019;1089;114042;-60
2021/06/08 00:23:43;;;;;;;8.38;6.33;;;;;;;15.34;76.62;99114.16;130142;1090;22543;-60
2021/06/08 00:26:11;;;;;;;7.53;5.38;;;;;;;15.36;76.52;99122.91;130013;1090;114291;-60
2021/06/08 00:28:39;;;;;;;10.35;5.63;;;;;;;15.38;76.36;99124.25;130099;1088;22606;-60
2021/06/08 00:31:08;;;;;;;10.13;6.20;;;;;;;15.40;76.33;99118.46;130155;1090;22665;-60
2021/06/08 00:33:36;;;;;;;10.63;6.00;;;;;;;15.41;76.19;99115.42;129952;1090;113922;-60
2021/06/08 00:36:05;;;;;;;8.73;5.73;;;;;;;15.40;76.15;99116.53;130109;1090;22542;-60
2021/06/08 00:38:33;;;;;;;7.35;6.20;;;;;;;15.41;76.19;99117.34;130024;1088;116012;-60
2021/06/08 00:41:02;;;;;;;9.13;5.45;;;;;;;15.41;75.85;99117.34;130150;1090;22633;-60
2021/06/08 00:43:30;;;;;;;9.90;5.70;;;;;;;15.40;76.21;99118.46;130068;1090;23167;-60
2021/06/08 00:45:58;;;;;;;11.00;5.90;;;;;;;15.35;76.09;99104.80;129965;1090;113585;-59
2021/06/08 00:48:27;;;;;;;7.40;5.65;;;;;;;15.38;76.08;99110.52;130094;1090;23982;-59
2021/06/08 00:50:55;;;;;;;9.78;5.70;;;;;;;15.36;75.74;99115.48;130045;1090;113634;-59
2021/06/08 00:53:23;;;;;;;6.38;4.93;;;;;;;15.34;75.73;99120.46;130120;1090;22550;-59
2021/06/08 00:55:52;;;;;;;7.03;5.80;;;;;;;15.30;75.88;99111.19;130008;1089;113912;-60
2021/06/08 00:58:20;;;;;;;7.78;5.60;;;;;;;15.27;75.77;99119.22;130149;1090;22637;-60
2021/06/08 01:00:49;;;;;;;5.65;5.13;;;;;;;15.20;75.65;99117.66;130120;1090;22656;-60
2021/06/08 01:03:17;;;;;;;8.63;5.13;;;;;;;15.15;75.66;99114.16;130027;1088;113719;-60
2021/06/08 01:05:45;;;;;;;6.90;5.00;;;;;;;15.10;75.84;99122.49;130142;1090;23322;-59
2021/06/08 01:08:14;;;;;;;16.73;5.60;;;;;;;15.04;75.93;99116.25;130065;1090;114025;-60
2021/06/08 01:10:42;;;;;;;4.90;4.38;;;;;;;14.95;75.58;99123.53;130033;1090;22530;-59
2021/06/08 01:13:10;;;;;;;8.30;5.03;;;;;;;14.90;75.73;99120.03;130159;1089;22527;-60
2021/06/08 01:15:39;;;;;;;6.55;5.60;;;;;;;14.81;75.90;99130.87;130000;1090;114242;-60
2021/06/08 01:18:07;;;;;;;8.65;5.25;;;;;;;14.74;75.57;99127.66;130114;1090;22561;-60
2021/06/08 01:20:36;;;;;;;6.30;4.63;;;;;;;14.66;75.86;99125.58;130007;1089;113798;-59
2021/06/08 01:23:04;;;;;;;5.30;4.73;;;;;;;14.61;76.01;99131.94;130072;1088;22731;-60
2021/06/08 01:25:32;;;;;;;6.35;4.90;;;;;;;14.56;76.04;99131.20;130071;1090;22765;-60
2021/06/08 01:28:01;;;;;;;6.48;4.80;;;;;;;14.52;76.58;99127.41;130004;1093;113588;-60
2021/06/08 01:30:29;;;;;;;7.10;5.28;;;;;;;14.47;76.65;99131.84;130089;1089;23026;-60
2021/06/08 01:32:58;;;;;;;5.53;4.45;;;;;;;14.41;76.45;99130.28;129964;1090;114282;-60
2021/06/08 01:35:28;;;;;;;6.03;4.95;;;;;;;14.35;76.18;99136.89;130060;1090;22635;-60
2021/06/08 01:37:56;;;;;;;13.47;4.83;;;;;;;14.28;76.09;99147.41;130010;1089;114078;-60
2021/06/08 01:40:24;;;;;;;5.38;4.23;;;;;;;14.19;76.28;99140.09;130075;1090;22704;-57
2021/06/08 01:42:53;;;;;;;10.80;4.70;;;;;;;14.14;76.21;99155.47;130020;1093;22577;-57
2021/06/08 01:45:21;;;;;;;12.13;4.88;;;;;;;14.09;76.34;99152.80;129923;1093;114113;-57
2021/06/08 01:47:49;;;;;;;7.65;4.95;;;;;;;14.05;76.55;99156.41;130070;1093;22521;-57
2021/06/08 01:50:17;;;;;;;6.78;5.68;;;;;;;14.01;76.65;99158.90;130008;1093;113945;-56
2021/06/08 01:52:56;;;;;;;7.15;5.40;;;;;;;13.96;76.86;99153.49;130012;1092;23188;-56
2021/06/08 01:55:30;;;;;;;9.28;5.58;;;;;;;13.93;76.74;99154.06;130088;1093;22569;-56
2021/06/08 01:58:08;;;;;;;6.85;5.15;;;;;;;13.92;77.35;99151.61;129938;1093;113623;-56
2021/06/08 02:01:00;;;;;;;7.15;5.45;;;;;;;13.91;77.76;99152.71;130083;1092;22551;-56
2021/06/08 02:03:38;;;;;;;9.15;6.43;;;;;;;13.93;78.03;99155.98;129915;1093;113994;-57
2021/06/08 02:06:17;;;;;;;11.98;6.53;;;;;;;13.91;78.63;99149.97;130065;1092;23096;-57
2021/06/08 02:09:00;;;;;;;10.23;6.93;;;;;;;14.00;78.96;99153.70;129961;1092;115131;-57
2021/06/08 02:11:48;;;;;;;14.50;7.68;;;;;;;14.05;79.27;99153.66;130021;1092;22524;-57
2021/06/08 02:14:36;;;;;;;13.15;8.23;;;;;;;14.10;79.25;99153.63;130004;1090;114331;-56
2021/06/08 02:17:21;;;;;;;10.78;8.03;;;;;;;14.15;79.50;99156.29;130087;1090;22524;-56
2021/06/08 02:19:50;;;;;;;12.35;7.15;;;;;;;14.19;79.59;99151.88;130032;1090;114017;-57
2021/06/08 02:22:23;;;;;;;13.38;8.53;;;;;;;14.24;79.62;99154.56;130053;1090;22642;-56
2021/06/08 02:24:51;;;;;;;9.73;7.20;;;;;;;14.28;79.42;99160.29;130119;1089;22625;-57
2021/06/08 02:27:22;;;;;;;12.30;7.48;;;;;;;14.32;79.68;99148.43;129942;1090;113756;-57
2021/06/08 02:29:51;;;;;;;11.43;7.93;;;;;;;14.34;79.76;99148.96;130098;1090;23779;-56
2021/06/08 02:32:20;;;;;;;10.53;7.00;;;;;;;14.39;79.56;99154.39;129941;1090;114174;-57
2021/06/08 02:34:48;;;;;;;9.13;7.03;;;;;;;14.45;79.68;99149.68;130073;1090;23054;-57
2021/06/08 02:37:17;;;;;;;10.35;6.58;;;;;;;14.50;79.76;99153.19;130036;1090;22633;-57
2021/06/08 02:39:46;;;;;;;11.83;6.58;;;;;;;14.56;79.81;99153.14;128740;1090;115033;-57
2021/06/08 02:42:17;;;;;;;10.90;7.20;;;;;;;14.61;79.47;99156.62;130079;1090;22555;-57
2021/06/08 02:44:46;;;;;;;17.70;6.90;;;;;;;14.68;79.64;99156.27;129937;1090;114034;-57
2021/06/08 02:47:16;;;;;;;11.63;6.80;;;;;;;14.74;79.59;99155.08;130128;1090;22625;-57
2021/06/08 02:49:46;;;;;;;10.98;7.50;;;;;;;14.79;79.45;99160.51;129943;1091;114095;-57
2021/06/08 02:52:15;;;;;;;11.18;6.33;;;;;;;14.83;79.09;99162.38;130120;1093;22630;-58
2021/06/08 02:54:43;;;;;;;9.18;6.50;;;;;;;14.88;79.21;99166.95;130079;1090;22571;-58
2021/06/08 02:57:12;;;;;;;9.88;6.55;;;;;;;14.94;78.91;99171.28;129995;1093;114155;-58
2021/06/08 02:59:40;;;;;;;6.58;5.53;;;;;;;14.97;78.69;99172.63;130014;1093;22581;-58
2021/06/08 03:02:13;;;;;;;7.48;5.60;;;;;;;15.03;78.81;99174.16;130011;1090;114036;-58
2021/06/08 03:04:50;;;;;;;6.95;6.13;;;;;;;15.07;78.70;99173.28;130050;1090;22584;-58
2021/06/08 03:07:19;;;;;;;10.60;7.50;;;;;;;15.10;78.70;99169.95;130071;1090;23803;-58
2021/06/08 03:09:51;;;;;;;12.35;7.13;;;;;;;15.14;78.60;99171.01;129944;1090;114032;-58
2021/06/08 03:12:22;;;;;;;8.83;6.68;;;;;;;15.18;78.82;99166.53;130040;1092;22727;-58
2021/06/08 03:14:50;;;;;;;10.58;8.05;;;;;;;15.25;79.35;99162.61;129937;1092;113970;-59
2021/06/08 03:17:19;;;;;;;12.55;7.60;;;;;;;15.32;79.24;99168.53;129886;1093;22606;-59
2021/06/08 03:19:47;;;;;;;12.05;7.88;;;;;;;15.39;78.95;99158.01;129730;1092;114072;-58
2021/06/08 03:22:17;;;;;;;12.43;7.88;;;;;;;15.44;78.97;99169.70;130048;1093;22577;-58
2021/06/08 03:24:50;;;;;;;9.23;7.18;;;;;;;15.50;78.81;99171.27;130053;1092;22565;-59
2021/06/08 03:27:18;;;;;;;12.03;7.60;;;;;;;15.58;78.74;99174.50;129957;1093;113914;-59
2021/06/08 03:29:47;;;;;;;12.40;7.68;;;;;;;15.64;78.42;99182.34;129994;1093;23371;-58
2021/06/08 03:32:15;;;;;;;17.05;8.15;;;;;;;15.71;78.50;99185.53;129999;1093;114235;-58
2021/06/08 03:34:44;;;;;;;8.28;7.35;;;;;;;15.77;78.23;99181.56;130035;1093;23026;-58
2021/06/08 03:37:12;;;;;;;10.58;8.03;;;;;;;15.83;78.28;99185.88;130054;1093;23122;-58
2021/06/08 03:39:41;;;;;;;13.83;7.80;;;;;;;15.91;77.97;99182.42;128875;1093;114315;-60
2021/06/08 03:42:09;;;;;;;10.15;8.13;;;;;;;15.97;77.71;99176.85;125433;1091;22783;-60
2021/06/08 03:44:38;;;;;;;11.38;8.40;;;;;;;16.01;77.74;99177.89;125367;1090;113472;-60
2021/06/08 03:47:06;;;;;;;10.07;8.10;;;;;;;16.05;77.55;99176.95;125510;1088;22806;-60
2021/06/08 03:49:34;;;;;;;12.90;8.28;;;;;;;16.10;77.23;99176.06;130049;1090;23746;-61
2021/06/08 03:52:03;;;;;;;12.55;7.78;;;;;;;16.13;77.02;99176.28;129962;1090;113838;-61
2021/06/08 03:54:31;;;;;;;16.70;8.63;;;;;;;16.18;77.02;99170.66;130126;1090;22553;-60
2021/06/08 03:57:00;;;;;;;11.93;7.93;;;;;;;16.22;76.94;99176.38;129959;1090;114239;-61
2021/06/08 03:59:28;;;;;;;11.58;7.98;;;;;;;16.27;76.66;99176.30;130138;1090;23810;-61
2021/06/08 04:01:57;;;;;;;15.58;7.63;;;;;;;16.32;76.73;99181.68;129940;1089;115362;-60
2021/06/08 04:04:25;;;;;;;9.53;7.83;;;;;;;16.39;76.44;99184.05;130084;1090;22575;-60
2021/06/08 04:06:54;;;;;;;14.48;7.78;;;;;;;16.43;76.02;99187.82;130080;1090;22586;-60
2021/06/08 04:09:22;;;;;;;11.50;8.63;;;;;;;16.45;76.32;99183.63;130027;1090;114182;-60
2021/06/08 04:11:51;;;;;;;9.68;7.35;;;;;;;16.51;76.10;99187.92;130055;1090;22617;-60
2021/06/08 04:14:20;;;;;;;10.05;7.53;;;;;;;16.56;75.92;99187.83;129984;1090;114443;-60
2021/06/08 04:16:49;;;;;;;16.58;7.90;;;;;;;16.63;75.95;99187.44;130121;1090;22587;-60
2021/06/08 04:19:18;;;;;;;10.68;8.48;;;;;;;16.70;75.83;99193.36;130099;1089;22563;-60
2021/06/08 04:21:51;;;;;;;10.83;8.40;;;;;;;16.78;75.64;99186.31;129924;1090;114419;-61
2021/06/08 04:24:19;;;;;;;15.48;8.68;;;;;;;16.85;75.57;99189.48;130095;1090;23065;-61
2021/06/08 04:26:48;;;;;;;9.18;7.60;;;;;;;16.92;75.00;99187.92;129933;1093;114270;-60
2021/06/08 04:29:16;;;;;;;8.40;6.85;;;;;;;16.95;74.44;99189.25;130081;1090;22589;-60
2021/06/08 04:31:44;;;;;;;9.35;7.20;;;;;;;16.96;74.15;99193.63;129982;1089;114970;-61
2021/06/08 04:34:18;;;;;;;10.60;6.85;;;;;;;16.97;73.81;99195.27;130093;1090;22750;-61
2021/06/08 04:36:47;;;;;;;10.65;7.00;;;;;;;16.99;73.85;99186.70;130117;1089;23397;-61
2021/06/08 04:39:16;;;;;;;8.10;6.87;;;;;;;17.03;73.72;99190.45;129660;1091;113954;-60
2021/06/08 04:41:45;;;;;;;9.88;6.43;;;;;;;17.08;73.91;99187.59;125494;1090;28588;-60
2021/06/08 04:44:20;;;;;;;12.70;5.93;;;;;;;17.13;73.34;99188.31;125295;1090;114007;-60
2021/06/08 04:46:48;;;;;;;8.45;6.30;;;;;;;17.20;73.35;99196.95;130136;1089;22531;-61
2021/06/08 04:49:17;;;;;;;8.38;5.98;;;;;;;17.23;72.79;99190.83;130061;1090;22566;-61
2021/06/08 04:51:45;;;;;;;6.80;5.93;;;;;;;17.22;72.63;99194.70;130014;1090;113113;-61
2021/06/08 04:54:13;;;;;;;10.60;6.05;;;;;;;17.26;72.57;99189.39;130053;1090;22581;-61
2021/06/08 04:56:42;;;;;;;7.10;6.40;;;;;;;17.29;72.56;99194.29;129993;1088;113989;-61
2021/06/08 04:59:12;;;;;;;8.15;5.83;;;;;;;17.37;72.95;99192.73;130045;1090;22566;-61
2021/06/08 05:01:41;;;;;;;9.05;6.18;;;;;;;17.45;72.76;99181.80;130136;1090;22626;-61
2021/06/08 05:04:11;;;;;;;9.25;6.13;;;;;;;17.50;72.49;99180.84;129916;1090;113683;-61
2021/06/08 05:06:41;;;;;;;9.08;5.55;;;;;;;17.63;72.08;99189.09;130076;1090;22569;-61
2021/06/08 05:09:13;;;;;;;8.73;5.70;;;;;;;17.74;71.64;99186.10;129959;1090;114238;-62
2021/06/08 05:11:50;;;;;;;7.78;6.73;;;;;;;17.89;71.36;99197.53;130078;1091;24345;-61
2021/06/08 05:14:18;;;;;;;9.03;6.38;;;;;;;18.08;71.16;99194.58;129932;1090;114098;-61
2021/06/08 05:16:47;;;;;;;11.75;6.08;;;;;;;18.25;70.23;99202.95;129949;1093;22554;-61
2021/06/08 05:19:17;;;;;;;7.03;6.28;;;;;;;18.40;69.53;99192.64;130036;1090;22587;-61
2021/06/08 05:21:46;;;;;;;6.53;5.53;;;;;;;18.55;68.80;99184.77;129939;1090;113751;-61
2021/06/08 05:24:15;;;;;;;7.23;5.98;;;;;;;18.73;68.74;99187.63;130055;1090;23100;-62
2021/06/08 05:26:48;;;;;;;8.50;5.80;;;;;;;18.90;67.81;99191.22;129970;1090;113829;-62
2021/06/08 05:29:20;;;;;;;8.23;6.38;;;;;;;19.02;66.92;99188.68;130069;1090;22584;-61
2021/06/08 05:31:49;;;;;;;8.10;6.08;;;;;;;19.16;67.04;99188.54;130009;1090;113953;-62
2021/06/08 05:34:20;;;;;;;6.83;6.13;;;;;;;19.33;67.15;99187.75;130051;1090;22563;-61
2021/06/08 05:36:48;;;;;;;8.45;6.20;;;;;;;19.51;66.44;99194.11;130084;1090;22570;-60
2021/06/08 05:39:17;;;;;;;9.63;5.30;;;;;;;19.65;65.60;99189.23;130053;1090;113867;-54
2021/06/08 05:41:45;;;;;;;12.78;5.18;;;;;;;19.78;64.98;99191.81;130097;1090;22702;-55
2021/06/08 05:44:14;;;;;;;4.80;4.30;;;;;;;19.89;64.36;99191.50;130030;1090;114163;-54
2021/06/08 05:46:42;;;;;;;5.85;4.33;;;;;;;19.95;63.80;99193.75;130032;1089;22559;-54
2021/06/08 05:49:11;;;;;;;8.50;4.30;;;;;;;19.94;63.06;99192.13;130024;1093;23235;-54
2021/06/08 05:51:39;;;;;;;7.75;4.70;;;;;;;19.91;63.23;99195.53;129982;1090;114184;-54
2021/06/08 05:54:08;;;;;;;6.30;4.43;;;;;;;19.90;62.64;99190.36;130050;1090;23144;-55
2021/06/08 05:56:37;;;;;;;6.38;4.60;;;;;;;19.87;62.86;99185.48;129984;1090;114194;-55
2021/06/08 05:59:07;;;;;;;7.80;4.53;;;;;;;19.86;63.43;99192.97;130086;1091;22638;-54
2021/06/08 06:01:35;;;;;;;5.35;4.60;;;;;;;19.89;63.30;99197.84;130072;1090;23176;-55
2021/06/08 06:04:04;;;;;;;4.53;4.05;;;;;;;19.90;63.08;99188.41;129927;1089;113323;-55
2021/06/08 06:06:32;;;;;;;6.05;3.73;;;;;;;19.87;62.13;99186.30;130042;1091;22575;-54
2021/06/08 06:09:01;;;;;;;6.63;3.70;;;;;;;19.88;61.49;99195.41;129959;1090;113827;-54
2021/06/08 06:11:30;;;;;;;5.40;3.80;;;;;;;19.88;61.88;99187.11;130047;1093;22612;-55
2021/06/08 06:14:02;;;;;;;6.50;4.83;;;;;;;19.89;62.35;99189.55;129743;1091;115500;-54
2021/06/08 06:16:33;;;;;;;5.45;3.90;;;;;;;19.90;62.71;99179.30;130077;1088;23432;-54
2021/06/08 06:19:04;;;;;;;6.23;4.18;;;;;;;19.92;62.39;99183.34;130029;1090;22668;-54
2021/06/08 06:21:33;;;;;;;4.35;3.75;;;;;;;19.97;62.72;99185.13;130015;1090;113704;-54
2021/06/08 06:24:02;;;;;;;8.13;4.05;;;;;;;20.02;62.16;99182.20;130082;1089;22637;-54
2021/06/08 06:26:32;;;;;;;4.10;3.25;;;;;;;20.07;61.81;99182.83;129988;1090;114274;-54
2021/06/08 06:29:01;;;;;;;6.58;3.58;;;;;;;20.10;61.71;99176.64;130079;1090;22716;-55
2021/06/08 06:31:30;;;;;;;7.97;3.17;;;;;;;20.12;61.11;99173.55;130042;1090;113716;-54
2021/06/08 06:33:58;;;;;;;7.10;4.25;;;;;;;20.17;60.29;99175.34;130134;1090;22547;-55
2021/06/08 06:37:47;;;;;;;4.20;3.55;;;;;;;20.19;60.79;99170.29;125535;1093;22933;-54
2021/06/08 06:40:16;;;;;;;6.53;4.20;;;;;;;20.23;60.95;99174.00;129586;1092;22554;-60
2021/06/08 06:42:46;;;;;;;4.53;3.85;;;;;;;20.28;60.93;99171.88;129806;1093;22529;-59
2021/06/08 06:45:18;;;;;;;6.25;4.13;;;;;;;20.31;60.51;99168.45;129615;1093;113949;-59
2021/06/08 06:47:50;;;;;;;6.13;4.40;;;;;;;20.33;59.96;99171.70;129737;1093;23405;-59
2021/06/08 06:50:18;;;;;;;6.30;4.30;;;;;;;20.32;60.82;99170.08;129695;1092;113692;-59
2021/06/08 06:52:55;;;;;;;6.45;4.33;;;;;;;20.37;60.90;99174.63;129756;1093;23125;-59
2021/06/08 06:55:27;;;;;;;4.88;4.38;;;;;;;20.45;60.49;99168.27;129650;1093;113916;-59
2021/06/08 06:57:55;;;;;;;5.30;4.05;;;;;;;20.48;60.41;99175.91;129792;1092;22521;-59
2021/06/08 07:00:25;;;;;;;5.05;4.50;;;;;;;20.48;60.54;99169.56;129781;1093;22563;-59
2021/06/08 07:02:55;;;;;;;5.20;4.05;;;;;;;20.48;60.49;99172.34;129722;1093;113583;-59
2021/06/08 07:05:25;;;;;;;8.05;4.40;;;;;;;20.51;59.68;99172.46;129780;1092;23420;-59
2021/06/08 07:07:53;;;;;;;7.65;3.70;;;;;;;20.53;59.50;99170.17;129664;1093;113890;-59
2021/06/08 07:10:25;;;;;;;6.20;3.90;;;;;;;20.55;60.38;99176.20;130467;1089;23154;-59
2021/06/08 07:12:55;;;;;;;5.85;4.53;;;;;;;20.61;60.03;99166.58;130465;1089;22593;-59
2021/06/08 07:15:27;;;;;;;5.10;3.73;;;;;;;20.67;59.97;99170.77;129985;1090;113865;-59
2021/06/08 07:17:55;;;;;;;5.60;4.48;;;;;;;20.67;59.58;99167.99;130392;1089;22566;-59
2021/06/08 07:20:25;;;;;;;7.88;5.23;;;;;;;20.65;59.88;99172.23;130415;1089;113966;-59
2021/06/08 07:22:53;;;;;;;7.15;4.25;;;;;;;20.61;59.92;99176.83;130435;1090;22566;-59
2021/06/08 07:25:21;;;;;;;5.10;3.50;;;;;;;20.62;60.44;99172.92;130289;1089;113731;-59
2021/06/08 07:27:51;;;;;;;9.10;4.50;;;;;;;20.64;59.47;99168.66;130179;1090;22590;-59
2021/06/08 07:30:20;;;;;;;5.73;4.58;;;;;;;20.63;59.76;99166.24;130475;1090;22570;-59
2021/06/08 07:32:57;;;;;;;8.23;5.23;;;;;;;20.62;59.77;99168.20;130352;1089;113710;-59
2021/06/08 07:35:35;;;;;;;8.85;4.18;;;;;;;20.60;60.12;99162.18;130501;1090;22508;-60
2021/06/08 07:38:08;;;;;;;5.00;4.50;;;;;;;20.59;59.67;99168.86;130325;1089;113609;-59
2021/06/08 07:40:38;;;;;;;5.45;4.90;;;;;;;20.60;60.30;99173.25;127317;1088;23514;-59
2021/06/08 07:43:09;;;;;;;8.03;4.55;;;;;;;20.60;60.18;99175.21;130446;1090;22581;-59
2021/06/08 07:45:43;;;;;;;5.25;4.35;;;;;;;20.58;60.61;99183.03;130320;1090;113648;-59
2021/06/08 07:48:19;;;;;;;5.73;4.53;;;;;;;20.52;61.01;99171.32;130442;1090;23269;-59
2021/06/08 07:50:51;;;;;;;13.07;5.33;;;;;;;20.49;60.99;99171.98;130229;1090;113574;-59
2021/06/08 07:53:19;;;;;;;8.53;4.75;;;;;;;20.44;61.54;99169.41;130391;1089;22588;-59
2021/06/08 07:55:49;;;;;;;7.08;4.60;;;;;;;20.43;61.59;99168.59;130063;1089;113934;-59
2021/06/08 07:58:24;;;;;;;6.65;4.23;;;;;;;20.41;61.28;99170.88;130403;1089;22623;-60
2021/06/08 08:00:56;;;;;;;7.63;4.45;;;;;;;20.38;61.21;99179.84;130446;1090;22548;-60
2021/06/08 08:03:29;;;;;;;7.25;4.38;;;;;;;20.38;61.38;99176.26;130215;1089;113678;-59
2021/06/08 08:06:06;;;;;;;6.68;4.25;;;;;;;20.40;61.35;99174.79;130409;1088;22587;-60
2021/06/08 08:08:34;;;;;;;;;;;;;;;20.43;61.78;99167.78;130333;1088;113624;-59
2021/06/08 08:11:14;;;;;;;6.33;4.28;;;;;;;20.46;61.65;99176.25;130417;1089;21305;-59
2021/06/08 08:13:45;;;;;;;7.03;4.53;;;;;;;20.50;60.62;99172.79;130285;1090;113802;-60
2021/06/08 08:16:14;;;;;;;11.58;3.75;;;;;;;20.50;59.62;99179.14;130464;1087;23285;-60
2021/06/08 08:18:43;;;;;;;4.53;3.18;;;;;;;20.53;59.77;99172.13;130415;1089;22593;-59
2021/06/08 08:21:14;;;;;;;5.23;3.30;;;;;;;20.61;60.14;99176.83;130388;1088;114429;-60
2021/06/08 08:23:44;;;;;;;6.08;3.53;;;;;;;20.75;60.15;99180.19;130269;1090;22608;-60
2021/06/08 08:26:12;;;;;;;4.18;3.20;;;;;;;20.87;59.67;99174.73;130425;1090;113967;-60
2021/06/08 08:28:41;;;;;;;5.03;3.63;;;;;;;20.99;58.94;99185.91;130442;1089;24060;-60
2021/06/08 08:31:12;;;;;;;8.00;4.25;;;;;;;21.05;59.51;99173.50;130494;1089;23511;-60
2021/06/08 08:33:41;;;;;;;9.55;4.38;;;;;;;21.05;59.62;99181.00;130353;1090;114085;-60
2021/06/08 08:36:09;;;;;;;5.95;4.40;;;;;;;21.00;59.77;99181.18;130372;1089;22587;-60
2021/06/08 08:38:38;;;;;;;5.05;3.90;;;;;;;20.96;59.81;99177.45;130421;1090;114208;-59
2021/06/08 08:41:07;;;;;;;4.85;4.35;;;;;;;20.93;58.86;99176.16;130464;1089;23140;-58
2021/06/08 08:43:45;;;;;;;4.95;4.13;;;;;;;20.91;59.02;99180.43;130411;1090;113607;-58
2021/06/08 08:46:14;;;;;;;4.93;4.40;;;;;;;20.88;58.74;99175.55;130492;1089;22533;-58
2021/06/08 08:48:43;;;;;;;6.88;4.58;;;;;;;20.87;59.18;99168.39;130492;1089;22568;-60
2021/06/08 08:51:12;;;;;;;6.83;4.15;;;;;;;20.94;58.91;99165.89;130416;1090;113723;-58
2021/06/08 08:53:43;;;;;;;7.33;4.28;;;;;;;21.05;58.87;99172.69;130222;1090;116116;-60
2021/06/08 08:56:31;;;;;;;7.03;3.85;;;;;;;21.12;58.15;99167.41;130469;1088;23309;-59
2021/06/08 08:59:04;;;;;;;5.63;3.70;;;;;;;21.19;57.16;99173.27;130408;1090;22567;-59
2021/06/08 09:01:33;;;;;;;5.35;4.05;;;;;;;21.18;57.21;99154.99;130404;1090;113541;-59
2021/06/08 09:04:02;;;;;;;5.18;4.23;;;;;;;21.20;57.22;99163.81;130448;1090;22660;-60
2021/06/08 09:06:31;;;;;;;4.03;3.63;;;;;;;21.24;57.86;99164.73;130362;1089;113479;-59
2021/06/08 09:09:00;;;;;;;4.48;3.40;;;;;;;21.33;56.99;99157.19;130537;1088;22552;-59
2021/06/08 09:11:31;;;;;;;5.50;3.40;;;;;;;21.44;56.84;99147.31;130291;1090;113816;-59
2021/06/08 09:14:00;;;;;;;5.73;3.50;;;;;;;21.55;56.07;99144.12;130511;1089;23017;-59
2021/06/08 09:16:28;;;;;;;5.73;3.58;;;;;;;21.60;56.30;99155.82;130165;1089;22570;-59
2021/06/08 09:18:57;;;;;;;4.83;3.40;;;;;;;21.70;55.36;99151.81;130070;1090;114061;-59
2021/06/08 09:21:26;;;;;;;5.30;3.85;;;;;;;21.75;54.97;99151.61;130427;1090;22593;-59
2021/06/08 09:24:13;;;;;;;6.05;4.63;;;;;;;21.78;54.27;99139.84;130347;1090;113786;-59
2021/06/08 09:27:02;;;;;;;7.15;3.83;;;;;;;21.79;54.64;99141.44;130444;1089;22543;-59
2021/06/08 09:29:32;;;;;;;10.63;4.90;;;;;;;21.81;54.87;99141.91;130337;1089;114904;-59
2021/06/08 09:32:19;;;;;;;11.18;4.88;;;;;;;21.82;55.66;99132.44;130418;1090;22558;-58
2021/06/08 09:34:55;;;;;;;7.25;4.20;;;;;;;21.83;56.05;99137.64;130510;1089;22528;-59
2021/06/08 09:37:31;;;;;;;8.33;5.25;;;;;;;21.85;56.15;99138.11;130342;1090;113789;-58
2021/06/08 09:40:00;;;;;;;8.13;4.98;;;;;;;21.84;55.89;99142.04;130485;1089;22551;-58
2021/06/08 09:42:29;;;;;;;7.73;5.48;;;;;;;21.79;55.89;99135.89;130381;1089;113658;-58
2021/06/08 09:45:14;;;;;;;10.18;4.55;;;;;;;21.73;57.75;99140.05;130525;1090;22643;-59
2021/06/08 09:47:42;;;;;;;13.43;5.00;;;;;;;21.61;59.71;99140.00;130337;1089;113963;-58
2021/06/08 09:50:39;;;;;;;8.08;4.75;;;;;;;21.45;60.55;99132.30;130502;1089;22659;-58
2021/06/08 09:53:27;;;;;;;10.28;4.73;;;;;;;21.33;61.62;99128.66;130483;1090;22579;-58
2021/06/08 09:56:04;;;;;;;6.90;4.45;;;;;;;21.25;62.32;99121.22;130348;1090;114167;-59
2021/06/08 09:58:34;;;;;;;9.63;5.38;;;;;;;21.16;63.09;99113.77;130490;1090;22652;-58
2021/06/08 10:01:13;;;;;;;8.38;4.78;;;;;;;21.16;63.70;99124.03;130398;1089;113628;-59
2021/06/08 10:03:50;;;;;;;7.73;4.28;;;;;;;21.16;64.55;99135.93;130491;1090;23225;-59
2021/06/08 10:06:19;;;;;;;8.23;4.78;;;;;;;21.11;64.36;99124.23;130371;1089;114056;-59
2021/06/08 10:08:57;;;;;;;15.13;10.80;;;;;;;21.24;64.86;99128.72;130487;1090;22514;-59
2021/06/08 10:11:28;;;;;;;27.78;14.55;;;;;;;21.31;63.72;99117.92;130492;1089;22533;-59
2021/06/08 10:14:11;;;;;;;24.20;17.78;;;;;;;21.35;63.04;99113.30;130397;1090;113590;-59
2021/06/08 10:16:39;;;;;;;18.88;11.88;;;;;;;21.38;61.93;99120.13;130471;1090;22595;-59
2021/06/08 10:19:10;;;;;;;21.65;13.68;;;;;;;21.38;61.63;99120.94;130395;1088;114257;-59
2021/06/08 10:21:38;;;;;;;27.40;22.20;;;;;;;21.38;61.12;99112.63;130479;1089;23195;-58
2021/06/08 10:24:11;;;;;;;44.80;7.83;;;;;;;21.39;60.81;99111.47;130352;1090;114124;-59
2021/06/08 10:26:45;;;;;;;14.90;11.45;;;;;;;21.41;59.53;99108.37;130103;1089;22602;-58
2021/06/08 10:29:14;;;;;;;12.53;9.83;;;;;;;21.44;59.17;99097.42;129999;1089;23485;-59
2021/06/08 10:31:46;;;;;;;7.63;6.15;;;;;;;21.55;59.71;99091.44;129937;1090;114401;-59
2021/06/08 10:34:36;;;;;;;12.93;11.67;;;;;;;21.63;59.30;99087.80;130035;1089;22917;-59
2021/06/08 10:37:05;;;;;;;11.35;9.55;;;;;;;21.79;59.03;99094.28;129918;1090;115133;-59
2021/06/08 10:39:35;;;;;;;15.80;10.63;;;;;;;21.92;59.19;99101.52;129992;1090;22553;-59
2021/06/08 10:42:06;;;;;;;25.08;12.05;;;;;;;21.99;59.00;99104.55;129939;1090;114143;-59
2021/06/08 10:44:35;;;;;;;22.13;14.93;;;;;;;21.96;59.70;99105.20;129985;1090;23212;-59
2021/06/08 10:47:20;;;;;;;23.00;16.58;;;;;;;21.91;60.06;99113.76;130045;1090;22580;-59
2021/06/08 10:49:49;;;;;;;42.25;29.10;;;;;;;21.82;59.96;99110.25;129891;1092;114088;-60
2021/06/08 10:52:17;;;;;;;25.80;19.83;;;;;;;21.72;60.21;99110.69;130005;1093;22574;-58
2021/06/08 10:54:50;;;;;;;48.10;18.45;;;;;;;21.64;60.86;99098.52;129892;1090;114136;-58
2021/06/08 10:57:19;;;;;;;10.05;7.23;;;;;;;21.57;60.57;99094.69;130017;1092;23409;-59
2021/06/08 10:59:49;;;;;;;9.35;7.30;;;;;;;21.51;60.72;99091.31;129863;1090;114370;-59
2021/06/08 11:02:43;;;;;;;11.35;6.80;;;;;;;21.46;61.01;99089.58;129991;1090;22663;-59
2021/06/08 11:05:13;;;;;;;7.83;6.33;;;;;;;21.42;61.09;99099.72;129993;1090;22636;-59
2021/06/08 11:07:47;;;;;;;16.48;9.68;;;;;;;21.38;61.22;99097.95;129933;1090;113796;-59
2021/06/08 11:10:25;;;;;;;79.05;48.95;;;;;;;21.36;61.37;99103.02;129975;1090;22536;-59
2021/06/08 11:13:08;;;;;;;49.20;29.13;;;;;;;21.33;61.56;99112.84;129969;1090;114137;-59
2021/06/08 11:15:47;;;;;;;25.53;14.90;;;;;;;21.34;61.32;99116.44;130092;1090;23392;-59
2021/06/08 11:18:18;;;;;;;13.40;12.00;;;;;;;21.34;60.16;99114.47;129969;1090;114630;-59
2021/06/08 11:20:48;;;;;;;11.18;8.70;;;;;;;21.36;60.70;99105.80;130040;1090;23367;-59
2021/06/08 11:23:45;;;;;;;20.33;17.83;;;;;;;21.40;60.23;99106.75;130105;1090;22645;-59
2021/06/08 11:26:17;;;;;;;13.15;7.45;;;;;;;21.43;59.74;99106.07;129935;1090;113476;-59
2021/06/08 11:28:50;;;;;;;5.55;4.55;;;;;;;21.44;59.78;99110.47;130453;1089;22582;-58
2021/06/08 11:31:20;;;;;;;10.73;6.53;;;;;;;21.41;59.13;99100.05;130326;1088;113785;-59
2021/06/08 11:34:03;;;;;;;17.05;5.30;;;;;;;21.36;58.87;99092.75;130490;1088;22602;-59
2021/06/08 11:36:32;;;;;;;13.93;5.33;;;;;;;21.27;58.84;99078.17;130326;1090;115161;-59
2021/06/08 11:39:20;;;;;;;7.93;4.00;;;;;;;21.26;59.24;99095.94;130490;1090;22535;-59